Time;durP1;ratioP1;P1;durP2;ratioP2;P2;SDS_P1;SDS_P2;PMS_P1;PMS_P2;Temp;Humidity;BMP_temperature;BMP_pressure;BME280_temperature;BME280_humidity;BME280_pressure;Samples;Min_cycle;Max_cycle;Signal;HPM_P1;HPM_P2
2022/09/10 00:01:21;;;;;;;;;;;19.70;86.80;;;;;;4918539;29;19969;-71
2022/09/10 00:03:52;;;;;;;;;;;19.70;86.80;;;;;;4918744;29;19915;-72
2022/09/10 00:06:17;;;;;;;;;;;19.70;86.60;;;;;;4918505;29;19911;-72
2022/09/10 00:08:44;;;;;;;;;;;19.70;86.40;;;;;;4918582;29;19929;-73
2022/09/10 00:11:10;;;;;;;;;;;19.80;87.00;;;;;;4918498;29;19920;-72
2022/09/10 00:13:38;;;;;;;;;;;19.70;86.70;;;;;;4918528;29;20389;-72
2022/09/10 00:16:05;;;;;;;;;;;19.80;87.00;;;;;;4918670;29;19939;-72
2022/09/10 00:18:31;;;;;;;;;;;19.80;86.50;;;;;;4918418;29;20356;-73
2022/09/10 00:20:57;;;;;;;;;;;19.90;86.20;;;;;;4918401;29;19997;-72
2022/09/10 00:23:25;;;;;;;;;;;19.80;86.60;;;;;;4903582;29;20275;-71
2022/09/10 00:25:52;;;;;;;;;;;19.90;86.70;;;;;;4918293;29;19921;-72
2022/09/10 00:28:18;;;;;;;;;;;19.90;86.00;;;;;;4918447;29;19915;-73
2022/09/10 00:30:45;;;;;;;;;;;19.90;86.80;;;;;;4918105;29;19915;-73
2022/09/10 00:33:11;;;;;;;;;;;19.90;86.60;;;;;;4918219;29;20019;-73
2022/09/10 00:35:38;;;;;;;;;;;19.90;86.60;;;;;;4918412;29;19954;-73
2022/09/10 00:38:04;;;;;;;;;;;19.90;86.70;;;;;;4918469;29;19919;-72
2022/09/10 00:40:30;;;;;;;;;;;19.90;86.00;;;;;;4918260;29;20402;-73
2022/09/10 00:42:56;;;;;;;;;;;20.00;85.40;;;;;;4918098;29;19915;-73
2022/09/10 00:45:26;;;;;;;;;;;20.00;85.30;;;;;;4918197;29;19912;-73
2022/09/10 00:47:53;;;;;;;;;;;20.10;84.90;;;;;;4918057;29;20372;-73
2022/09/10 00:50:39;;;;;;;;;;;20.10;84.90;;;;;;4917934;29;20371;-72
2022/09/10 00:53:07;;;;;;;;;;;20.20;84.80;;;;;;4902936;29;19918;-74
2022/09/10 00:55:33;;;;;;;;;;;20.20;84.60;;;;;;4918386;29;19994;-72
2022/09/10 00:58:00;;;;;;;;;;;20.20;84.30;;;;;;4917904;29;20018;-72
2022/09/10 01:00:26;;;;;;;;;;;20.10;84.50;;;;;;4917812;29;20318;-73
2022/09/10 01:02:51;;;;;;;;;;;20.20;83.90;;;;;;4917782;29;19912;-74
2022/09/10 01:05:18;;;;;;;;;;;20.20;84.10;;;;;;4904223;29;19994;-73
2022/09/10 01:07:43;;;;;;;;;;;20.20;83.60;;;;;;4917680;29;19972;-73
2022/09/10 01:10:16;;;;;;;;;;;20.20;83.30;;;;;;4917439;29;20340;-73
2022/09/10 01:12:45;;;;;;;;;;;20.30;83.30;;;;;;4917586;29;19911;-73
2022/09/10 01:15:11;;;;;;;;;;;20.20;83.40;;;;;;4917519;29;19955;-73
2022/09/10 01:17:37;;;;;;;;;;;20.30;82.50;;;;;;4917044;29;19942;-73
2022/09/10 01:20:25;;;;;;;;;;;20.30;81.80;;;;;;4917686;29;20009;-73
2022/09/10 01:23:10;;;;;;;;;;;20.40;81.60;;;;;;4901743;29;19911;-73
2022/09/10 01:25:48;;;;;;;;;;;20.40;81.40;;;;;;4917384;29;19955;-73
2022/09/10 01:28:34;;;;;;;;;;;20.30;81.20;;;;;;4917047;29;20397;-73
2022/09/10 01:31:05;;;;;;;;;;;20.30;81.30;;;;;;4917390;29;19922;-72
2022/09/10 01:33:41;;;;;;;;;;;20.30;81.60;;;;;;4917320;29;19911;-72
2022/09/10 01:36:11;;;;;;;;;;;20.40;81.70;;;;;;4916957;29;20062;-73
2022/09/10 01:38:37;;;;;;;;;;;20.30;81.40;;;;;;4916406;29;19969;-73
2022/09/10 01:41:03;;;;;;;;;;;20.30;80.80;;;;;;4917015;29;20319;-73
2022/09/10 01:43:29;;;;;;;;;;;20.40;80.70;;;;;;4917146;29;19926;-71
2022/09/10 01:46:13;;;;;;;;;;;20.40;80.30;;;;;;4916967;29;20001;-73
2022/09/10 01:48:58;;;;;;;;;;;20.40;80.60;;;;;;4917096;29;19911;-72
2022/09/10 01:51:43;;;;;;;;;;;20.40;79.90;;;;;;4916943;29;19915;-73
2022/09/10 01:54:14;;;;;;;;;;;20.40;79.50;;;;;;4903272;29;19923;-73
2022/09/10 01:56:40;;;;;;;;;;;20.40;79.60;;;;;;4916805;29;19915;-73
2022/09/10 01:59:17;;;;;;;;;;;20.50;79.90;;;;;;4916717;29;20311;-73
2022/09/10 02:01:51;;;;;;;;;;;20.40;79.40;;;;;;4916567;29;20422;-74
2022/09/10 02:04:18;;;;;;;;;;;20.40;79.60;;;;;;4916677;29;19919;-73
2022/09/10 02:06:46;;;;;;;;;;;20.40;78.90;;;;;;4916565;29;20376;-72
2022/09/10 02:09:13;;;;;;;;;;;20.50;78.30;;;;;;4916388;29;19919;-73
2022/09/10 02:11:49;;;;;;;;;;;20.40;78.30;;;;;;4916461;29;19919;-72
2022/09/10 02:14:15;;;;;;;;;;;20.40;78.70;;;;;;4916481;29;19911;-73
2022/09/10 02:16:43;;;;;;;;;;;20.30;78.70;;;;;;4916382;29;19912;-71
2022/09/10 02:19:10;;;;;;;;;;;20.40;78.30;;;;;;4916358;29;19919;-73
2022/09/10 02:21:36;;;;;;;;;;;20.30;78.10;;;;;;4916356;29;19917;-73
2022/09/10 02:24:04;;;;;;;;;;;20.30;78.10;;;;;;4906548;29;19915;-71
2022/09/10 02:26:32;;;;;;;;;;;20.30;78.10;;;;;;4916358;29;19922;-73
2022/09/10 02:28:58;;;;;;;;;;;20.30;78.20;;;;;;4916408;28;19911;-73
2022/09/10 02:31:24;;;;;;;;;;;20.40;77.40;;;;;;4916275;29;19911;-73
2022/09/10 02:33:50;;;;;;;;;;;20.40;77.70;;;;;;4916554;29;19918;-73
2022/09/10 02:36:16;;;;;;;;;;;20.40;78.40;;;;;;4916072;29;20388;-72
2022/09/10 02:38:41;;;;;;;;;;;20.50;77.00;;;;;;4916228;29;19919;-73
2022/09/10 02:41:08;;;;;;;;;;;20.50;76.80;;;;;;4915911;29;19934;-73
2022/09/10 02:43:36;;;;;;;;;;;20.40;77.40;;;;;;4916273;29;19911;-72
2022/09/10 02:46:03;;;;;;;;;;;20.40;77.10;;;;;;4916067;29;20006;-73
2022/09/10 02:48:29;;;;;;;;;;;20.40;76.70;;;;;;4916129;29;19922;-73
2022/09/10 02:50:55;;;;;;;;;;;20.40;76.60;;;;;;4915195;29;19997;-71
2022/09/10 02:53:21;;;;;;;;;;;20.40;77.00;;;;;;4903482;29;20213;-73
2022/09/10 02:55:47;;;;;;;;;;;20.40;77.20;;;;;;4915975;29;19915;-73
2022/09/10 02:58:13;;;;;;;;;;;20.40;77.10;;;;;;4915742;29;19935;-72
2022/09/10 03:00:39;;;;;;;;;;;20.40;77.50;;;;;;4916224;29;19911;-72
2022/09/10 03:03:05;;;;;;;;;;;20.30;77.80;;;;;;4915983;29;19915;-73
2022/09/10 03:05:31;;;;;;;;;;;20.30;77.90;;;;;;4915943;29;20131;-72
2022/09/10 03:07:57;;;;;;;;;;;20.30;77.70;;;;;;4915991;29;19926;-73
2022/09/10 03:10:26;;;;;;;;;;;20.20;77.80;;;;;;4915921;29;19923;-72
2022/09/10 03:12:52;;;;;;;;;;;20.20;78.40;;;;;;4915958;29;19911;-73
2022/09/10 03:15:19;;;;;;;;;;;20.20;78.80;;;;;;4915617;29;19911;-73
2022/09/10 03:17:45;;;;;;;;;;;20.10;79.30;;;;;;4915695;29;19947;-73
2022/09/10 03:20:12;;;;;;;;;;;20.20;79.00;;;;;;4915651;29;19958;-73
2022/09/10 03:22:38;;;;;;;;;;;20.20;79.60;;;;;;4901277;29;19911;-72
2022/09/10 03:25:04;;;;;;;;;;;20.10;79.90;;;;;;4915665;29;19938;-72
2022/09/10 03:27:30;;;;;;;;;;;20.00;79.60;;;;;;4915420;29;20018;-71
2022/09/10 03:29:56;;;;;;;;;;;20.10;80.00;;;;;;4915903;29;19997;-72
2022/09/10 03:32:21;;;;;;;;;;;20.00;79.80;;;;;;4915549;29;20378;-72
2022/09/10 03:34:48;;;;;;;;;;;20.10;79.50;;;;;;4915486;29;19911;-72
2022/09/10 03:37:14;;;;;;;;;;;20.20;79.10;;;;;;4915669;29;19922;-73
2022/09/10 03:39:40;;;;;;;;;;;20.20;79.10;;;;;;4915304;29;19915;-73
2022/09/10 03:42:06;;;;;;;;;;;20.00;80.00;;;;;;4915505;29;20475;-72
2022/09/10 03:44:32;;;;;;;;;;;20.10;80.10;;;;;;4915680;29;19915;-72
2022/09/10 03:47:01;;;;;;;;;;;20.10;80.00;;;;;;4915589;29;20368;-73
2022/09/10 03:49:27;;;;;;;;;;;20.20;79.70;;;;;;4915357;29;20296;-73
2022/09/10 03:51:53;;;;;;;;;;;20.20;79.20;;;;;;4915398;29;19911;-72
2022/09/10 03:54:19;;;;;;;;;;;20.20;78.50;;;;;;4899666;29;19918;-72
2022/09/10 03:56:45;;;;;;;;;;;20.20;78.10;;;;;;4915423;29;20055;-72
2022/09/10 03:59:13;;;;;;;;;;;20.20;78.10;;;;;;4915302;29;20013;-71
2022/09/10 04:01:39;;;;;;;;;;;20.10;78.50;;;;;;4916174;29;19915;-72
2022/09/10 04:04:05;;;;;;;;;;;20.10;77.90;;;;;;4918799;29;20287;-72
2022/09/10 04:06:34;;;;;;;;;;;20.10;77.20;;;;;;4918603;29;20043;-72
2022/09/10 04:09:00;;;;;;;;;;;20.20;77.40;;;;;;4918547;29;20013;-71
2022/09/10 04:11:26;;;;;;;;;;;20.10;77.10;;;;;;4918642;29;19915;-72
2022/09/10 04:13:52;;;;;;;;;;;20.20;77.10;;;;;;4918627;29;19921;-72
2022/09/10 04:16:18;;;;;;;;;;;20.20;76.70;;;;;;4918681;29;19915;-73
2022/09/10 04:18:44;;;;;;;;;;;20.20;77.00;;;;;;4918313;29;20379;-73
2022/09/10 04:21:11;;;;;;;;;;;20.10;77.00;;;;;;4918434;29;19959;-72
2022/09/10 04:23:36;;;;;;;;;;;20.00;77.20;;;;;;4906831;29;19911;-72
2022/09/10 04:26:16;;;;;;;;;;;20.10;78.30;;;;;;4918568;29;20420;-72
2022/09/10 04:28:42;;;;;;;;;;;20.10;77.50;;;;;;4918250;29;19918;-72
2022/09/10 04:31:07;;;;;;;;;;;20.10;77.00;;;;;;4918255;29;19911;-72
2022/09/10 04:33:33;;;;;;;;;;;20.20;75.80;;;;;;4918127;29;19915;-72
2022/09/10 04:36:01;;;;;;;;;;;20.20;75.70;;;;;;4918310;29;19915;-72
2022/09/10 04:38:31;;;;;;;;;;;20.10;75.60;;;;;;4918285;29;19919;-72
2022/09/10 04:40:57;;;;;;;;;;;20.20;74.60;;;;;;4918255;29;20030;-73
2022/09/10 04:43:24;;;;;;;;;;;20.20;73.20;;;;;;4918414;29;20344;-71
2022/09/10 04:45:50;;;;;;;;;;;20.30;71.30;;;;;;4918006;29;19912;-71
2022/09/10 04:48:16;;;;;;;;;;;20.30;70.70;;;;;;4918055;29;19987;-73
2022/09/10 04:50:41;;;;;;;;;;;20.30;70.60;;;;;;4918248;29;20009;-71
2022/09/10 04:53:07;;;;;;;;;;;20.40;70.70;;;;;;4903942;29;19915;-72
2022/09/10 04:55:33;;;;;;;;;;;20.40;69.30;;;;;;4916754;29;20256;-72
2022/09/10 04:57:59;;;;;;;;;;;20.40;69.20;;;;;;4917856;29;19947;-72
2022/09/10 05:00:25;;;;;;;;;;;20.50;68.80;;;;;;4917861;29;20005;-72
2022/09/10 05:02:51;;;;;;;;;;;20.50;68.90;;;;;;4917889;29;20364;-73
2022/09/10 05:05:17;;;;;;;;;;;20.60;68.70;;;;;;4917840;29;19922;-72
2022/09/10 05:07:42;;;;;;;;;;;20.60;68.20;;;;;;4918081;29;19915;-73
2022/09/10 05:10:09;;;;;;;;;;;20.60;68.70;;;;;;4917408;29;20418;-71
2022/09/10 05:12:36;;;;;;;;;;;20.60;68.20;;;;;;4917354;29;19918;-69
2022/09/10 05:15:02;;;;;;;;;;;20.60;68.20;;;;;;4917250;29;20284;-72
2022/09/10 05:17:28;;;;;;;;;;;20.60;68.20;;;;;;4917335;29;19915;-72
2022/09/10 05:19:53;;;;;;;;;;;20.50;68.40;;;;;;4917706;29;20282;-73
2022/09/10 05:22:20;;;;;;;;;;;20.50;67.70;;;;;;4904131;29;20002;-72
2022/09/10 05:24:46;;;;;;;;;;;20.60;68.40;;;;;;4917732;29;19916;-73
2022/09/10 05:27:11;;;;;;;;;;;20.50;68.90;;;;;;4917478;29;20010;-74
2022/09/10 05:29:37;;;;;;;;;;;20.50;68.40;;;;;;4917394;29;19950;-76
2022/09/10 05:32:03;;;;;;;;;;;20.50;68.70;;;;;;4917333;29;20387;-72
2022/09/10 05:34:28;;;;;;;;;;;20.60;69.40;;;;;;4917277;29;19918;-74
2022/09/10 05:36:55;;;;;;;;;;;20.60;69.10;;;;;;4917244;29;19912;-75
2022/09/10 05:39:20;;;;;;;;;;;20.60;69.10;;;;;;4917064;29;19915;-75
2022/09/10 05:41:46;;;;;;;;;;;20.60;69.20;;;;;;4917257;29;19919;-72
2022/09/10 05:44:13;;;;;;;;;;;20.60;69.50;;;;;;4916947;29;20283;-75
2022/09/10 05:46:39;;;;;;;;;;;20.80;69.60;;;;;;4917066;29;19915;-69
2022/09/10 05:49:05;;;;;;;;;;;20.70;69.40;;;;;;4917160;29;19922;-71
2022/09/10 05:51:30;;;;;;;;;;;20.70;69.50;;;;;;4916886;29;19965;-69
2022/09/10 05:53:56;;;;;;;;;;;20.70;69.70;;;;;;4910374;29;20375;-75
2022/09/10 05:56:22;;;;;;;;;;;20.60;70.30;;;;;;4916937;29;19912;-65
2022/09/10 05:58:48;;;;;;;;;;;20.60;69.70;;;;;;4916511;29;20086;-73
2022/09/10 06:01:14;;;;;;;;;;;20.60;70.00;;;;;;4916756;29;19912;-72
2022/09/10 06:03:39;;;;;;;;;;;20.60;69.50;;;;;;4916942;29;20382;-71
2022/09/10 06:06:05;;;;;;;;;;;20.60;70.20;;;;;;4928530;28;20291;-75
2022/09/10 06:08:31;;;;;;;;;;;20.50;69.50;;;;;;4915273;29;19911;-72
2022/09/10 06:10:57;;;;;;;;;;;20.70;69.70;;;;;;4915215;29;19927;-72
2022/09/10 06:13:23;;;;;;;;;;;20.90;69.40;;;;;;4915600;29;20470;-72
2022/09/10 06:15:49;;;;;;;;;;;21.20;67.40;;;;;;4915570;29;19922;-82
2022/09/10 06:18:14;;;;;;;;;;;21.50;67.60;;;;;;4915527;29;19919;-74
2022/09/10 06:20:40;;;;;;;;;;;21.90;65.70;;;;;;4916046;29;19994;-74
2022/09/10 06:23:05;;;;;;;;;;;22.20;64.90;;;;;;4901010;29;20272;-73
2022/09/10 06:25:31;;;;;;;;;;;22.40;64.20;;;;;;4916374;29;19919;-73
2022/09/10 06:27:56;;;;;;;;;;;22.70;63.10;;;;;;4916235;29;20327;-72
2022/09/10 06:30:22;;;;;;;;;;;22.90;61.80;;;;;;4914950;29;19922;-72
2022/09/10 06:32:47;;;;;;;;;;;23.10;62.00;;;;;;4916216;29;19918;-73
2022/09/10 06:35:13;;;;;;;;;;;23.30;60.50;;;;;;4916400;29;19911;-71
2022/09/10 06:37:39;;;;;;;;;;;23.40;61.50;;;;;;4915976;29;19919;-77
2022/09/10 06:40:05;;;;;;;;;;;23.70;60.70;;;;;;4916319;29;19911;-77
2022/09/10 06:42:31;;;;;;;;;;;23.90;60.50;;;;;;4916269;29;19915;-77
2022/09/10 06:44:58;;;;;;;;;;;23.70;59.10;;;;;;4916090;29;19915;-74
2022/09/10 06:47:24;;;;;;;;;;;23.30;60.00;;;;;;4916399;29;19966;-73
2022/09/10 06:49:51;;;;;;;;;;;23.30;60.40;;;;;;4916139;29;19915;-74
2022/09/10 06:52:17;;;;;;;;;;;23.30;60.30;;;;;;4904513;29;20423;-71
2022/09/10 06:54:42;;;;;;;;;;;23.60;60.60;;;;;;4915949;29;19937;-76
2022/09/10 06:57:08;;;;;;;;;;;23.80;59.90;;;;;;4916079;29;19930;-77
2022/09/10 06:59:33;;;;;;;;;;;23.70;59.30;;;;;;4915846;29;20001;-77
2022/09/10 07:02:00;;;;;;;;;;;23.50;59.00;;;;;;4916117;29;20368;-78
2022/09/10 07:04:26;;;;;;;;;;;23.20;59.40;;;;;;4916033;29;19911;-78
2022/09/10 07:06:53;;;;;;;;;;;22.90;60.10;;;;;;4916006;29;19915;-77
2022/09/10 07:09:18;;;;;;;;;;;22.70;60.50;;;;;;4915853;29;19923;-77
2022/09/10 07:11:44;;;;;;;;;;;22.60;61.80;;;;;;4914163;29;19915;-75
2022/09/10 07:14:11;;;;;;;;;;;22.80;61.70;;;;;;4914724;29;19973;-77
2022/09/10 07:16:40;;;;;;;;;;;22.70;60.20;;;;;;4915177;29;20343;-75
2022/09/10 07:19:06;;;;;;;;;;;22.70;60.90;;;;;;4914621;29;19974;-73
2022/09/10 07:21:36;;;;;;;;;;;22.70;60.50;;;;;;4914761;29;19993;-74
2022/09/10 07:24:04;;;;;;;;;;;22.60;60.20;;;;;;4902352;29;21712;-68
2022/09/10 07:26:30;;;;;;;;;;;22.80;61.20;;;;;;4914724;29;19947;-70
2022/09/10 07:28:56;;;;;;;;;;;22.80;61.20;;;;;;4914607;29;20390;-70
2022/09/10 07:31:28;;;;;;;;;;;22.80;60.40;;;;;;4914668;29;19926;-69
2022/09/10 07:33:55;;;;;;;;;;;22.80;61.20;;;;;;4915263;29;19911;-69
2022/09/10 07:36:20;;;;;;;;;;;22.90;61.20;;;;;;4915019;29;19978;-72
2022/09/10 07:38:49;;;;;;;;;;;22.80;60.70;;;;;;4917908;29;19923;-75
2022/09/10 07:41:15;;;;;;;;;;;22.70;61.30;;;;;;4917862;29;19967;-73
2022/09/10 07:43:42;;;;;;;;;;;22.70;62.00;;;;;;4917875;29;19950;-73
2022/09/10 07:46:12;;;;;;;;;;;22.80;61.50;;;;;;4918649;29;19970;-72
2022/09/10 07:48:39;;;;;;;;;;;23.00;61.90;;;;;;4918408;29;19915;-73
2022/09/10 07:51:05;;;;;;;;;;;23.10;59.60;;;;;;4918192;29;19911;-73
2022/09/10 07:53:31;;;;;;;;;;;23.20;60.00;;;;;;4905992;29;20358;-71
2022/09/10 07:55:58;;;;;;;;;;;23.30;59.10;;;;;;4917812;29;20002;-73
2022/09/10 07:58:23;;;;;;;;;;;23.30;59.40;;;;;;4918256;29;19926;-74
2022/09/10 08:00:49;;;;;;;;;;;23.50;59.70;;;;;;4918498;29;19986;-74
2022/09/10 08:03:17;;;;;;;;;;;23.50;58.60;;;;;;4918515;29;19922;-73
2022/09/10 08:05:42;;;;;;;;;;;23.50;58.40;;;;;;4916930;29;19982;-73
2022/09/10 08:08:09;;;;;;;;;;;23.50;58.10;;;;;;4918209;29;19962;-73
2022/09/10 08:10:34;;;;;;;;;;;23.40;58.50;;;;;;4918421;29;19979;-71
2022/09/10 08:13:00;;;;;;;;;;;23.20;59.30;;;;;;4918463;29;19919;-73
2022/09/10 08:15:26;;;;;;;;;;;23.10;60.30;;;;;;4918596;29;19919;-69
2022/09/10 08:17:51;;;;;;;;;;;23.10;60.10;;;;;;4918836;29;19962;-71
2022/09/10 08:20:17;;;;;;;;;;;23.10;61.10;;;;;;4918586;29;19915;-67
2022/09/10 08:22:42;;;;;;;;;;;23.10;60.20;;;;;;4916468;29;19974;-66
2022/09/10 08:25:08;;;;;;;;;;;23.10;61.10;;;;;;4918162;29;19946;-66
2022/09/10 08:27:34;;;;;;;;;;;23.00;61.30;;;;;;4918269;29;19915;-66
2022/09/10 08:30:00;;;;;;;;;;;22.90;61.60;;;;;;4918112;29;19917;-66
2022/09/10 08:32:26;;;;;;;;;;;22.90;62.60;;;;;;4918161;29;19998;-66
2022/09/10 08:34:52;;;;;;;;;;;23.00;62.80;;;;;;4918486;29;19915;-66
2022/09/10 08:37:17;;;;;;;;;;;23.10;63.10;;;;;;4918151;29;19942;-66
2022/09/10 08:39:43;;;;;;;;;;;23.00;62.20;;;;;;4917966;29;19916;-67
2022/09/10 08:42:15;;;;;;;;;;;22.90;63.50;;;;;;4917917;29;20010;-67
2022/09/10 08:44:53;;;;;;;;;;;23.10;63.70;;;;;;4918037;29;19966;-66
2022/09/10 08:47:24;;;;;;;;;;;23.10;62.50;;;;;;4917693;29;19911;-67
2022/09/10 08:50:02;;;;;;;;;;;23.30;61.80;;;;;;4916750;29;20271;-66
2022/09/10 08:52:34;;;;;;;;;;;23.40;61.40;;;;;;4878756;29;19911;-66
2022/09/10 08:55:08;;;;;;;;;;;23.50;60.20;;;;;;4917723;29;19915;-66
2022/09/10 08:57:36;;;;;;;;;;;23.50;60.10;;;;;;4917801;29;19919;-66
2022/09/10 09:00:03;;;;;;;;;;;23.70;60.60;;;;;;4917412;29;20386;-66
2022/09/10 09:02:34;;;;;;;;;;;23.90;59.70;;;;;;4917490;29;19915;-66
2022/09/10 09:05:19;;;;;;;;;;;24.00;60.10;;;;;;4917648;29;19915;-66
2022/09/10 09:07:47;;;;;;;;;;;24.30;59.80;;;;;;4917529;29;19915;-66
2022/09/10 09:10:25;;;;;;;;;;;24.50;59.10;;;;;;4917112;29;20395;-66
2022/09/10 09:13:01;;;;;;;;;;;24.60;56.70;;;;;;4917518;29;19911;-66
2022/09/10 09:15:35;;;;;;;;;;;24.80;56.60;;;;;;4917383;29;19971;-66
2022/09/10 09:18:10;;;;;;;;;;;24.90;56.00;;;;;;4917283;29;19919;-66
2022/09/10 09:20:43;;;;;;;;;;;25.00;55.80;;;;;;4917284;29;20571;-66
2022/09/10 09:23:22;;;;;;;;;;;25.10;52.40;;;;;;4867586;29;19911;-66
2022/09/10 09:25:57;;;;;;;;;;;25.10;51.40;;;;;;4916943;29;19973;-66
2022/09/10 09:28:30;;;;;;;;;;;25.10;53.00;;;;;;4917453;29;20061;-66
2022/09/10 09:30:58;;;;;;;;;;;25.20;52.60;;;;;;4917396;29;19918;-66
2022/09/10 09:33:24;;;;;;;;;;;25.10;53.80;;;;;;4917453;29;19959;-66
2022/09/10 09:35:52;;;;;;;;;;;25.20;53.70;;;;;;4917141;29;19912;-66
2022/09/10 09:38:22;;;;;;;;;;;25.30;53.10;;;;;;4917256;29;19974;-66
2022/09/10 09:40:54;;;;;;;;;;;25.30;53.50;;;;;;4916968;29;19920;-66
2022/09/10 09:43:23;;;;;;;;;;;25.40;54.30;;;;;;4916993;29;19915;-66
2022/09/10 09:45:52;;;;;;;;;;;25.40;53.20;;;;;;4917159;29;20380;-66
2022/09/10 09:48:19;;;;;;;;;;;25.40;52.00;;;;;;4917126;29;19915;-64
2022/09/10 09:50:46;;;;;;;;;;;25.30;52.20;;;;;;4916958;29;19922;-64
2022/09/10 09:53:16;;;;;;;;;;;25.30;51.70;;;;;;4907931;29;19915;-64
2022/09/10 09:55:57;;;;;;;;;;;25.30;51.70;;;;;;4916824;29;19911;-64
2022/09/10 09:58:23;;;;;;;;;;;25.40;51.10;;;;;;4916613;29;20018;-64
2022/09/10 10:00:53;;;;;;;;;;;25.40;51.30;;;;;;4916231;29;20287;-66
2022/09/10 10:03:27;;;;;;;;;;;25.40;50.90;;;;;;4916790;29;19947;-66
2022/09/10 10:06:01;;;;;;;;;;;25.40;51.50;;;;;;4916806;29;19911;-65
2022/09/10 10:08:29;;;;;;;;;;;25.30;50.80;;;;;;4916583;29;19942;-64
2022/09/10 10:10:55;;;;;;;;;;;25.40;51.40;;;;;;4930924;29;19919;-64
2022/09/10 10:13:21;;;;;;;;;;;25.60;51.00;;;;;;4916631;29;20309;-64
2022/09/10 10:15:47;;;;;;;;;;;25.70;50.30;;;;;;4916715;29;20359;-66
2022/09/10 10:18:22;;;;;;;;;;;25.50;51.70;;;;;;4916508;29;19923;-66
2022/09/10 10:21:09;;;;;;;;;;;25.20;52.40;;;;;;4916147;29;19958;-65
2022/09/10 10:23:35;;;;;;;;;;;25.20;52.40;;;;;;4901306;29;19923;-65
2022/09/10 10:26:15;;;;;;;;;;;25.10;52.50;;;;;;4916449;29;19915;-66
2022/09/10 10:28:45;;;;;;;;;;;25.20;53.30;;;;;;4916136;29;19911;-66
2022/09/10 10:31:11;;;;;;;;;;;25.40;54.80;;;;;;4915985;29;19921;-65
2022/09/10 10:33:39;;;;;;;;;;;25.70;53.30;;;;;;4916253;29;19915;-66
2022/09/10 10:36:17;;;;;;;;;;;25.90;52.50;;;;;;4916092;29;19946;-65
2022/09/10 10:38:45;;;;;;;;;;;26.20;51.30;;;;;;4916239;29;19970;-66
2022/09/10 10:41:20;;;;;;;;;;;26.30;51.80;;;;;;4916229;29;19911;-65
2022/09/10 10:43:49;;;;;;;;;;;26.50;50.70;;;;;;4916285;29;19919;-65
2022/09/10 10:46:21;;;;;;;;;;;26.60;52.20;;;;;;4916164;29;20332;-65
2022/09/10 10:48:46;;;;;;;;;;;26.50;50.60;;;;;;4916097;29;19971;-65
2022/09/10 10:51:13;;;;;;;;;;;26.30;50.00;;;;;;4915904;29;19919;-65
2022/09/10 10:53:45;;;;;;;;;;;26.10;50.40;;;;;;4901485;29;19939;-65
2022/09/10 10:56:34;;;;;;;;;;;26.30;50.40;;;;;;4915962;29;19915;-65
2022/09/10 10:59:12;;;;;;;;;;;26.40;50.80;;;;;;4915782;29;20294;-65
2022/09/10 11:01:43;;;;;;;;;;;26.20;51.40;;;;;;4915429;29;19961;-66
2022/09/10 11:04:17;;;;;;;;;;;26.10;52.70;;;;;;4915633;29;19923;-65
2022/09/10 11:06:45;;;;;;;;;;;26.00;53.90;;;;;;4915594;29;20419;-65
2022/09/10 11:09:14;;;;;;;;;;;25.80;53.40;;;;;;4915144;29;20068;-65
2022/09/10 11:11:50;;;;;;;;;;;25.70;55.40;;;;;;4916433;29;19961;-66
2022/09/10 11:14:22;;;;;;;;;;;25.60;55.30;;;;;;4919248;29;19918;-64
2022/09/10 11:17:01;;;;;;;;;;;25.40;56.10;;;;;;4919364;29;20367;-65
2022/09/10 11:19:26;;;;;;;;;;;25.10;56.30;;;;;;4919358;29;19986;-66
2022/09/10 11:21:57;;;;;;;;;;;25.10;56.50;;;;;;4919321;29;19971;-65
2022/09/10 11:24:25;;;;;;;;;;;25.00;57.30;;;;;;4905185;29;19915;-65
2022/09/10 11:26:52;;;;;;;;;;;25.00;58.20;;;;;;4919555;29;19951;-66
2022/09/10 11:29:21;;;;;;;;;;;24.80;58.60;;;;;;4919017;29;19963;-66
2022/09/10 11:31:50;;;;;;;;;;;24.90;59.60;;;;;;4919003;29;20132;-65
2022/09/10 11:34:16;;;;;;;;;;;25.00;59.70;;;;;;4919118;29;19915;-66
2022/09/10 11:36:44;;;;;;;;;;;24.80;60.90;;;;;;4919029;29;19970;-66
2022/09/10 11:39:36;;;;;;;;;;;24.80;60.10;;;;;;4918791;29;19974;-67
2022/09/10 11:42:05;;;;;;;;;;;24.90;60.00;;;;;;4920535;29;20295;-67
2022/09/10 11:44:49;;;;;;;;;;;25.00;59.80;;;;;;4919163;29;19911;-66
2022/09/10 11:47:20;;;;;;;;;;;25.20;60.70;;;;;;4919198;29;19911;-66
2022/09/10 11:49:49;;;;;;;;;;;25.50;60.40;;;;;;4918642;29;19922;-66
2022/09/10 11:52:16;;;;;;;;;;;25.80;59.10;;;;;;4918751;29;20327;-66
2022/09/10 11:54:45;;;;;;;;;;;26.00;56.80;;;;;;4911475;29;20524;-66
2022/09/10 11:57:17;;;;;;;;;;;26.10;56.50;;;;;;4918748;29;20018;-66
2022/09/10 11:59:45;;;;;;;;;;;26.30;56.40;;;;;;4918412;29;19962;-65
2022/09/10 12:02:14;;;;;;;;;;;26.30;56.80;;;;;;4918726;29;20352;-65
2022/09/10 12:04:45;;;;;;;;;;;26.50;56.40;;;;;;4918509;29;19944;-64
2022/09/10 12:07:16;;;;;;;;;;;26.40;55.50;;;;;;4918489;29;20371;-66
2022/09/10 12:09:42;;;;;;;;;;;26.60;55.00;;;;;;4918004;29;20387;-66
2022/09/10 12:12:12;;;;;;;;;;;26.60;53.70;;;;;;4918256;29;20029;-65
2022/09/10 12:14:39;;;;;;;;;;;26.70;52.90;;;;;;4918292;29;19943;-66
2022/09/10 12:17:08;;;;;;;;;;;26.80;53.60;;;;;;4918184;29;19911;-65
2022/09/10 12:19:37;;;;;;;;;;;26.90;52.10;;;;;;4918237;29;19915;-65
2022/09/10 12:22:23;;;;;;;;;;;26.90;52.10;;;;;;4918271;29;20367;-65
2022/09/10 12:24:53;;;;;;;;;;;27.10;53.70;;;;;;4918470;29;19915;-65
2022/09/10 12:27:19;;;;;;;;;;;27.00;53.10;;;;;;4918445;29;19911;-64
2022/09/10 12:29:45;;;;;;;;;;;27.10;54.40;;;;;;4918226;29;20261;-65
2022/09/10 12:32:19;;;;;;;;;;;27.20;53.90;;;;;;4918490;29;19915;-65
2022/09/10 12:34:49;;;;;;;;;;;27.10;54.10;;;;;;4929651;29;19919;-65
2022/09/10 12:37:20;;;;;;;;;;;26.60;54.50;;;;;;4911686;29;20009;-65
2022/09/10 12:39:47;;;;;;;;;;;26.70;55.10;;;;;;4918095;29;20066;-65
2022/09/10 12:42:33;;;;;;;;;;;26.60;54.60;;;;;;4918107;29;19912;-64
2022/09/10 12:44:58;;;;;;;;;;;26.70;53.50;;;;;;4918060;29;19963;-66
2022/09/10 12:47:24;;;;;;;;;;;26.80;53.20;;;;;;4918130;29;19915;-65
2022/09/10 12:49:53;;;;;;;;;;;26.80;53.40;;;;;;4917921;29;20355;-66
2022/09/10 12:52:24;;;;;;;;;;;26.80;52.50;;;;;;4906159;29;19911;-65
2022/09/10 12:54:54;;;;;;;;;;;26.70;52.50;;;;;;4917746;29;20367;-65
2022/09/10 12:57:29;;;;;;;;;;;26.70;51.50;;;;;;4917812;29;19915;-65
2022/09/10 13:00:12;;;;;;;;;;;26.70;50.70;;;;;;4917518;29;19943;-65
2022/09/10 13:02:45;;;;;;;;;;;26.80;50.90;;;;;;4917904;29;19912;-65
2022/09/10 13:05:16;;;;;;;;;;;26.80;52.10;;;;;;4917649;29;19915;-66
2022/09/10 13:07:44;;;;;;;;;;;26.80;50.40;;;;;;4917666;29;20276;-65
2022/09/10 13:10:23;;;;;;;;;;;26.70;51.20;;;;;;4917302;29;20046;-66
2022/09/10 13:12:53;;;;;;;;;;;26.80;51.00;;;;;;4917834;29;19918;-67
2022/09/10 13:15:23;;;;;;;;;;;26.90;50.90;;;;;;4917505;29;19915;-66
2022/09/10 13:17:53;;;;;;;;;;;26.80;51.50;;;;;;4917523;29;19919;-66
2022/09/10 13:20:18;;;;;;;;;;;26.90;51.40;;;;;;4917448;29;19954;-66
2022/09/10 13:23:10;;;;;;;;;;;26.90;49.60;;;;;;4903239;29;19987;-65
2022/09/10 13:25:39;;;;;;;;;;;26.90;50.60;;;;;;4930726;29;20391;-65
2022/09/10 13:28:34;;;;;;;;;;;26.90;51.40;;;;;;4917539;29;19990;-64
2022/09/10 13:31:20;;;;;;;;;;;26.80;52.40;;;;;;4929983;29;20253;-66
2022/09/10 13:33:50;;;;;;;;;;;26.80;53.00;;;;;;4916700;29;19975;-65
2022/09/10 13:36:15;;;;;;;;;;;26.70;53.40;;;;;;4917047;29;20268;-65
2022/09/10 13:38:43;;;;;;;;;;;26.70;53.20;;;;;;4917078;29;19919;-64
2022/09/10 13:41:21;;;;;;;;;;;26.60;54.00;;;;;;4916963;29;19916;-65
2022/09/10 13:44:01;;;;;;;;;;;26.60;53.20;;;;;;4917189;29;20316;-65
2022/09/10 13:46:34;;;;;;;;;;;26.60;52.70;;;;;;4916880;29;20057;-65
2022/09/10 13:49:10;;;;;;;;;;;26.50;52.90;;;;;;4916856;29;19919;-65
2022/09/10 13:51:55;;;;;;;;;;;26.50;53.80;;;;;;4916788;29;19915;-65
2022/09/10 13:54:22;;;;;;;;;;;26.60;52.30;;;;;;4904115;29;19915;-65
2022/09/10 13:56:48;;;;;;;;;;;26.40;53.20;;;;;;4916785;28;20335;-65
2022/09/10 13:59:18;;;;;;;;;;;26.50;50.90;;;;;;4916612;28;20434;-64
2022/09/10 14:01:51;;;;;;;;;;;26.60;51.00;;;;;;4916740;29;20041;-65
2022/09/10 14:04:36;;;;;;;;;;;26.50;50.00;;;;;;4916739;29;19919;-65
2022/09/10 14:07:11;;;;;;;;;;;26.30;51.60;;;;;;4916534;29;19919;-65
2022/09/10 14:09:58;;;;;;;;;;;26.30;53.30;;;;;;4916179;29;20010;-65
2022/09/10 14:12:26;;;;;;;;;;;26.30;53.00;;;;;;4916580;29;20372;-64
2022/09/10 14:14:54;;;;;;;;;;;26.30;52.10;;;;;;4916408;29;19915;-65
2022/09/10 14:17:41;;;;;;;;;;;26.20;52.60;;;;;;4916325;29;20023;-65
2022/09/10 14:20:22;;;;;;;;;;;26.20;52.90;;;;;;4916416;29;19915;-65
2022/09/10 14:22:52;;;;;;;;;;;26.20;53.00;;;;;;4904536;29;19911;-64
2022/09/10 14:25:47;;;;;;;;;;;26.20;53.10;;;;;;4916176;29;19935;-64
2022/09/10 14:28:16;;;;;;;;;;;26.20;54.10;;;;;;4923725;29;20271;-67